Time;durP1;ratioP1;P1;durP2;ratioP2;P2;SDS_P1;SDS_P2;PMS_P1;PMS_P2;Temp;Humidity;BMP_temperature;BMP_pressure;BME280_temperature;BME280_humidity;BME280_pressure;Samples;Min_cycle;Max_cycle;Signal;HPM_P1;HPM_P2
2021/01/25 00:01:06;;;;;;;3.55;2.67;;;5.20;99.90;;;;;;5091809;28;20472;-74
2021/01/25 00:03:33;;;;;;;3.90;2.97;;;5.20;99.90;;;;;;5092239;28;20135;-74
2021/01/25 00:05:59;;;;;;;8.60;3.30;;;5.20;99.90;;;;;;5092338;28;20381;-76
2021/01/25 00:08:24;;;;;;;4.70;3.47;;;5.20;99.90;;;;;;5092284;28;20020;-75
2021/01/25 00:10:50;;;;;;;4.78;3.40;;;5.20;99.90;;;;;;5091280;28;20481;-75
2021/01/25 00:13:16;;;;;;;6.72;3.42;;;5.20;99.90;;;;;;5092922;28;20020;-74
2021/01/25 00:15:42;;;;;;;3.50;2.70;;;5.10;99.90;;;;;;5091906;28;20032;-75
2021/01/25 00:18:07;;;;;;;4.15;2.67;;;5.10;99.90;;;;;;5091112;28;20020;-74
2021/01/25 00:20:33;;;;;;;5.25;3.20;;;5.10;99.90;;;;;;5092372;28;20024;-73
2021/01/25 00:22:59;;;;;;;5.45;3.45;;;5.10;99.90;;;;;;5090583;28;20358;-74
2021/01/25 00:25:24;;;;;;;5.07;2.97;;;5.10;99.90;;;;;;5091954;28;20358;-75
2021/01/25 00:27:50;;;;;;;2.63;2.38;;;5.10;99.90;;;;;;5091876;28;20047;-74
2021/01/25 00:30:18;;;;;;;3.20;2.60;;;5.10;99.90;;;;;;5092285;28;20067;-74
2021/01/25 00:32:45;;;;;;;3.90;2.78;;;5.10;99.90;;;;;;5091855;28;20472;-76
2021/01/25 00:35:12;;;;;;;3.15;2.85;;;5.00;99.90;;;;;;5092325;28;20082;-75
2021/01/25 00:37:38;;;;;;;3.25;2.70;;;5.00;99.90;;;;;;5092023;28;20017;-75
2021/01/25 00:40:06;;;;;;;3.15;2.67;;;5.00;99.90;;;;;;5092405;28;20099;-74
2021/01/25 00:42:32;;;;;;;7.78;2.60;;;4.90;99.90;;;;;;5092330;28;20097;-75
2021/01/25 00:44:59;;;;;;;3.40;2.67;;;4.90;99.90;;;;;;5091838;28;20015;-74
2021/01/25 00:47:24;;;;;;;4.18;2.40;;;4.90;99.90;;;;;;5091745;28;20048;-74
2021/01/25 00:49:50;;;;;;;3.40;2.47;;;4.90;99.90;;;;;;5092168;28;20047;-75
2021/01/25 00:52:16;;;;;;;5.63;2.35;;;4.90;99.90;;;;;;5091751;28;20086;-75
2021/01/25 00:54:42;;;;;;;2.75;2.55;;;4.90;99.90;;;;;;5091995;28;20017;-76
2021/01/25 00:57:08;;;;;;;3.53;2.13;;;4.90;99.90;;;;;;5091371;28;20081;-75
2021/01/25 00:59:34;;;;;;;2.85;2.00;;;4.90;99.90;;;;;;5091721;28;20064;-75
2021/01/25 01:02:00;;;;;;;2.55;2.35;;;4.90;99.90;;;;;;5091420;28;20036;-76
2021/01/25 01:04:26;;;;;;;2.50;2.20;;;4.90;99.90;;;;;;5091805;28;20058;-75
2021/01/25 01:06:51;;;;;;;3.15;2.38;;;4.90;99.90;;;;;;5077979;28;20105;-74
2021/01/25 01:09:17;;;;;;;2.65;2.20;;;4.80;99.90;;;;;;5088858;28;20020;-74
2021/01/25 01:11:43;;;;;;;3.55;2.67;;;4.80;99.90;;;;;;5090663;28;20392;-77
2021/01/25 01:14:09;;;;;;;2.72;1.98;;;4.80;99.90;;;;;;5090866;28;20039;-75
2021/01/25 01:16:34;;;;;;;2.42;2.20;;;4.80;99.90;;;;;;5091520;28;20040;-77
2021/01/25 01:19:00;;;;;;;2.33;2.13;;;4.90;99.90;;;;;;5091328;28;20028;-75
2021/01/25 01:21:26;;;;;;;2.97;2.35;;;4.90;99.90;;;;;;5091161;28;20081;-74
2021/01/25 01:23:52;;;;;;;2.30;2.08;;;5.00;99.90;;;;;;5091148;28;20024;-74
2021/01/25 01:26:18;;;;;;;6.00;2.25;;;5.10;99.90;;;;;;5091033;28;20468;-76
2021/01/25 01:28:44;;;;;;;6.38;2.10;;;5.10;99.90;;;;;;5091094;28;20024;-74
2021/01/25 01:31:09;;;;;;;8.20;2.85;;;5.10;99.90;;;;;;5091590;28;20046;-75
2021/01/25 01:33:35;;;;;;;7.95;2.53;;;5.20;99.90;;;;;;5091320;28;20024;-74
2021/01/25 01:36:01;;;;;;;3.05;1.98;;;5.20;99.90;;;;;;5091491;28;20092;-75
2021/01/25 01:38:26;;;;;;;2.53;2.33;;;5.20;99.90;;;;;;5091276;28;20031;-75
2021/01/25 01:40:55;;;;;;;8.82;2.45;;;5.20;99.90;;;;;;5091663;28;20032;-74
2021/01/25 01:43:21;;;;;;;3.30;2.60;;;5.10;99.90;;;;;;5090902;28;20016;-73
2021/01/25 01:45:47;;;;;;;4.03;2.58;;;5.10;99.90;;;;;;5091242;28;20043;-75
2021/01/25 01:48:13;;;;;;;3.95;2.72;;;5.10;99.90;;;;;;5090944;28;20514;-75
2021/01/25 01:50:39;;;;;;;4.15;2.58;;;5.10;99.90;;;;;;5090861;28;20062;-74
2021/01/25 01:53:04;;;;;;;4.97;2.40;;;5.00;99.90;;;;;;5091218;28;20105;-75
2021/01/25 01:55:30;;;;;;;3.15;2.50;;;5.00;99.90;;;;;;5090631;28;20028;-74
2021/01/25 01:57:56;;;;;;;3.70;2.22;;;5.00;99.90;;;;;;5091861;28;20025;-75
2021/01/25 02:00:22;;;;;;;3.38;2.28;;;5.00;99.90;;;;;;5095187;28;20027;-75
2021/01/25 02:02:48;;;;;;;3.15;2.08;;;5.00;99.90;;;;;;5076502;28;20053;-75
2021/01/25 02:05:15;;;;;;;2.30;2.10;;;5.00;99.90;;;;;;5094814;28;20028;-74
2021/01/25 02:07:44;;;;;;;3.45;2.50;;;5.00;99.90;;;;;;5094839;28;20537;-74
2021/01/25 02:10:12;;;;;;;2.50;2.25;;;5.00;99.90;;;;;;5094958;28;20468;-75
2021/01/25 02:12:38;;;;;;;2.22;2.03;;;5.00;99.90;;;;;;5094544;28;20462;-75
2021/01/25 02:15:05;;;;;;;2.60;2.20;;;5.00;99.90;;;;;;5094870;28;20028;-74
2021/01/25 02:17:30;;;;;;;2.22;2.03;;;5.00;99.90;;;;;;5094962;28;20028;-75
2021/01/25 02:20:11;;;;;;;2.47;1.95;;;5.00;99.90;;;;;;5094793;28;20089;-75
2021/01/25 02:22:37;;;;;;;2.83;2.17;;;5.00;99.90;;;;;;5080954;28;20114;-74
2021/01/25 02:25:06;;;;;;;2.80;2.30;;;5.00;99.90;;;;;;5094655;28;20099;-73
2021/01/25 02:27:41;;;;;;;2.15;1.95;;;5.00;99.90;;;;;;5080554;28;20093;-75
2021/01/25 02:30:07;;;;;;;3.13;2.55;;;5.00;99.90;;;;;;5093317;28;20103;-74
2021/01/25 02:32:35;;;;;;;3.35;2.10;;;5.00;99.90;;;;;;5094728;28;20431;-74
2021/01/25 02:35:05;;;;;;;2.72;2.13;;;5.00;99.90;;;;;;5094535;28;20028;-74
2021/01/25 02:37:32;;;;;;;2.00;1.80;;;5.00;99.90;;;;;;5094727;28;20058;-74
2021/01/25 02:39:59;;;;;;;2.22;2.03;;;5.00;99.90;;;;;;5095039;28;20162;-74
2021/01/25 02:42:27;;;;;;;2.67;2.08;;;4.90;99.90;;;;;;5094906;28;20476;-74
2021/01/25 02:44:54;;;;;;;2.80;2.17;;;4.90;99.90;;;;;;5093162;28;20157;-74
2021/01/25 02:47:22;;;;;;;2.30;2.10;;;4.90;99.90;;;;;;5094419;28;20027;-74
2021/01/25 02:49:47;;;;;;;4.53;2.22;;;4.80;99.90;;;;;;5094815;28;20051;-74
2021/01/25 02:52:16;;;;;;;3.47;1.95;;;4.80;99.90;;;;;;5094565;28;20459;-74
2021/01/25 02:54:43;;;;;;;2.97;2.10;;;4.80;99.90;;;;;;5093861;28;20040;-75
2021/01/25 02:57:11;;;;;;;3.05;2.13;;;4.80;99.90;;;;;;5094676;28;20028;-75
2021/01/25 02:59:38;;;;;;;2.38;1.90;;;4.70;99.90;;;;;;5094485;28;20019;-74
2021/01/25 03:02:06;;;;;;;4.82;2.13;;;4.70;99.90;;;;;;5093277;28;20054;-74
2021/01/25 03:04:34;;;;;;;7.18;2.20;;;4.70;99.90;;;;;;5093723;28;20122;-75
2021/01/25 03:07:00;;;;;;;2.30;2.00;;;4.70;99.90;;;;;;5093689;28;20585;-74
2021/01/25 03:09:26;;;;;;;2.90;2.00;;;4.70;99.90;;;;;;5094407;28;20378;-75
2021/01/25 03:11:53;;;;;;;4.93;2.30;;;4.70;99.90;;;;;;5094183;28;20028;-75
2021/01/25 03:14:19;;;;;;;2.03;1.83;;;4.70;99.90;;;;;;5093929;28;20020;-75
2021/01/25 03:16:45;;;;;;;1.92;1.73;;;4.70;99.90;;;;;;5093582;28;20055;-77
2021/01/25 03:19:11;;;;;;;3.03;2.00;;;4.70;99.90;;;;;;5093833;28;20032;-76
2021/01/25 03:21:46;;;;;;;2.70;2.28;;;4.70;99.90;;;;;;5094058;28;20357;-76
2021/01/25 03:24:11;;;;;;;3.38;2.10;;;4.70;99.90;;;;;;5094081;28;20086;-76
2021/01/25 03:26:37;;;;;;;2.10;1.90;;;4.70;99.90;;;;;;5094075;28;20487;-75
2021/01/25 03:29:03;;;;;;;2.72;1.85;;;4.70;99.90;;;;;;5093897;28;20069;-76
2021/01/25 03:31:28;;;;;;;2.83;2.03;;;4.70;99.90;;;;;;5093751;28;20089;-75
2021/01/25 03:33:54;;;;;;;3.25;2.20;;;4.70;99.90;;;;;;5093413;28;20178;-76
2021/01/25 03:36:20;;;;;;;3.20;2.20;;;4.70;99.90;;;;;;5093540;28;20455;-76
2021/01/25 03:38:46;;;;;;;2.33;2.13;;;4.70;99.90;;;;;;5093344;28;20024;-76
2021/01/25 03:41:11;;;;;;;2.20;2.00;;;4.60;99.90;;;;;;5092329;28;20020;-76
2021/01/25 03:43:37;;;;;;;2.70;2.20;;;4.60;99.90;;;;;;5093375;28;20487;-75
2021/01/25 03:46:03;;;;;;;2.63;2.17;;;4.60;99.90;;;;;;5093288;28;20077;-75
2021/01/25 03:48:28;;;;;;;2.67;1.90;;;4.50;99.90;;;;;;5093608;28;20031;-75
2021/01/25 03:50:54;;;;;;;4.05;2.28;;;4.50;99.90;;;;;;5092917;28;20019;-73
2021/01/25 03:53:20;;;;;;;3.10;2.80;;;4.50;99.90;;;;;;5092989;28;20019;-75
2021/01/25 03:55:46;;;;;;;2.97;2.45;;;4.40;99.90;;;;;;5092542;28;20059;-75
2021/01/25 03:58:12;;;;;;;2.45;2.22;;;4.40;99.90;;;;;;5092693;28;20109;-74
2021/01/25 04:00:37;;;;;;;3.17;2.30;;;4.40;99.90;;;;;;5092782;28;20495;-76
2021/01/25 04:03:03;;;;;;;2.08;1.88;;;4.40;99.90;;;;;;5092107;28;20032;-76
2021/01/25 04:05:29;;;;;;;2.20;2.00;;;4.40;99.90;;;;;;5092723;28;20027;-76
2021/01/25 04:07:55;;;;;;;2.47;2.00;;;4.40;99.90;;;;;;5092385;28;20461;-75
2021/01/25 04:10:20;;;;;;;5.95;2.33;;;4.40;99.90;;;;;;5093345;28;20020;-76
2021/01/25 04:12:46;;;;;;;1.83;1.73;;;4.40;99.90;;;;;;5092883;28;20096;-76
2021/01/25 04:15:12;;;;;;;2.20;2.00;;;4.40;99.90;;;;;;5092642;28;20430;-75
2021/01/25 04:17:38;;;;;;;2.00;1.90;;;4.40;99.90;;;;;;5092799;28;20380;-74
2021/01/25 04:20:05;;;;;;;1.85;1.75;;;4.40;99.90;;;;;;5092425;28;20013;-75
2021/01/25 04:22:30;;;;;;;3.60;2.20;;;4.40;99.90;;;;;;5092554;28;20032;-75
2021/01/25 04:24:56;;;;;;;2.28;2.08;;;4.50;99.90;;;;;;5092695;28;20042;-75
2021/01/25 04:27:22;;;;;;;3.65;2.50;;;4.50;99.90;;;;;;5091122;28;20020;-75
2021/01/25 04:29:49;;;;;;;2.28;1.90;;;4.60;99.90;;;;;;5091538;28;20035;-76
2021/01/25 04:32:15;;;;;;;2.10;1.90;;;4.60;99.90;;;;;;5092183;28;20067;-75
2021/01/25 04:34:41;;;;;;;2.88;2.03;;;4.60;99.90;;;;;;5092009;28;20036;-76
2021/01/25 04:37:06;;;;;;;2.67;2.05;;;4.70;99.90;;;;;;5092269;28;20024;-75
2021/01/25 04:39:32;;;;;;;2.30;2.00;;;4.70;99.90;;;;;;5092637;28;20047;-74
2021/01/25 04:41:58;;;;;;;1.70;1.60;;;4.80;99.90;;;;;;5092637;28;20391;-76
2021/01/25 04:44:24;;;;;;;2.33;1.90;;;4.90;99.90;;;;;;5090503;28;20038;-75
2021/01/25 04:46:50;;;;;;;2.63;2.28;;;4.90;99.90;;;;;;5092440;28;20028;-76
2021/01/25 04:49:18;;;;;;;2.35;2.00;;;5.00;99.90;;;;;;5092152;28;20020;-75
2021/01/25 04:51:44;;;;;;;2.33;1.90;;;5.00;99.90;;;;;;5091907;28;20034;-75
2021/01/25 04:54:10;;;;;;;1.85;1.73;;;5.00;99.90;;;;;;5092055;28;20020;-76
2021/01/25 04:56:36;;;;;;;2.28;2.08;;;5.00;99.90;;;;;;5092349;28;20028;-74
2021/01/25 04:59:03;;;;;;;2.72;1.98;;;5.10;99.90;;;;;;5091951;28;20468;-74
2021/01/25 05:01:29;;;;;;;4.90;2.08;;;5.20;99.90;;;;;;5092253;28;20027;-74
2021/01/25 05:03:55;;;;;;;2.03;1.80;;;5.20;99.90;;;;;;5092107;28;20036;-74
2021/01/25 05:06:21;;;;;;;2.00;1.73;;;5.30;99.90;;;;;;5091669;28;20023;-75
2021/01/25 05:08:47;;;;;;;2.00;1.80;;;5.40;99.90;;;;;;5091976;28;20052;-75
2021/01/25 05:11:17;;;;;;;1.70;1.60;;;5.50;99.90;;;;;;5091734;28;20460;-74
2021/01/25 05:13:44;;;;;;;1.80;1.50;;;5.60;99.90;;;;;;5092193;28;20024;-74
2021/01/25 05:16:18;;;;;;;3.25;1.77;;;5.60;99.90;;;;;;5091820;28;20117;-74
2021/01/25 05:18:44;;;;;;;1.70;1.60;;;5.60;99.90;;;;;;5081302;28;20380;-75
2021/01/25 05:21:10;;;;;;;1.65;1.55;;;5.70;99.90;;;;;;5091316;28;20042;-74
2021/01/25 05:23:40;;;;;;;2.35;1.80;;;5.70;99.90;;;;;;5091285;28;20024;-74
2021/01/25 05:26:10;;;;;;;2.65;1.70;;;5.80;99.90;;;;;;5091458;28;20104;-74
2021/01/25 05:28:43;;;;;;;2.35;1.70;;;5.80;99.90;;;;;;5091221;28;20073;-74
2021/01/25 05:31:23;;;;;;;3.83;2.15;;;5.80;99.90;;;;;;5091471;28;20353;-74
2021/01/25 05:33:49;;;;;;;3.33;2.20;;;5.80;99.90;;;;;;5094275;28;20468;-74
2021/01/25 05:36:25;;;;;;;3.15;2.20;;;5.80;99.90;;;;;;5096061;28;20040;-74
2021/01/25 05:38:52;;;;;;;3.42;2.08;;;5.80;99.90;;;;;;5095949;28;20073;-75
2021/01/25 05:41:19;;;;;;;2.00;1.73;;;5.90;99.90;;;;;;5094111;28;20024;-76
2021/01/25 05:43:48;;;;;;;1.95;1.80;;;5.80;99.90;;;;;;5096022;28;20081;-76
2021/01/25 05:46:15;;;;;;;1.73;1.63;;;5.80;99.90;;;;;;5095980;28;20024;-76
2021/01/25 05:48:42;;;;;;;2.90;2.13;;;5.90;99.90;;;;;;5095837;28;20024;-76
2021/01/25 05:51:11;;;;;;;2.10;1.90;;;5.90;99.90;;;;;;5095348;28;20055;-75
2021/01/25 05:53:38;;;;;;;2.20;2.00;;;5.90;99.90;;;;;;5095690;28;20420;-75
2021/01/25 05:56:11;;;;;;;3.33;1.55;;;5.90;99.90;;;;;;5095501;28;20024;-75
2021/01/25 05:58:37;;;;;;;2.03;1.83;;;5.90;99.90;;;;;;5095324;28;20008;-75
2021/01/25 06:01:04;;;;;;;1.83;1.73;;;5.80;99.90;;;;;;5095188;28;20380;-75
2021/01/25 06:03:36;;;;;;;2.97;1.80;;;5.80;99.90;;;;;;5094285;28;20489;-76
2021/01/25 06:06:16;;;;;;;1.90;1.65;;;5.80;99.90;;;;;;5093871;28;20048;-75
2021/01/25 06:08:48;;;;;;;1.67;1.58;;;5.80;99.90;;;;;;5085286;28;20020;-75
2021/01/25 06:11:16;;;;;;;2.42;2.10;;;5.70;99.90;;;;;;5093943;28;20027;-74
2021/01/25 06:14:05;;;;;;;2.28;2.00;;;5.70;99.90;;;;;;5094176;28;20349;-74
2021/01/25 06:16:33;;;;;;;5.43;2.10;;;5.70;99.90;;;;;;5093315;28;20031;-75
2021/01/25 06:19:05;;;;;;;2.00;1.80;;;5.70;99.90;;;;;;5093610;28;20024;-74
2021/01/25 06:21:37;;;;;;;3.25;2.08;;;5.70;99.90;;;;;;5084723;28;20032;-76
2021/01/25 06:24:04;;;;;;;;;;;5.70;99.90;;;;;;5089275;28;20024;-75
2021/01/25 06:26:32;;;;;;;1.70;1.60;;;5.80;99.90;;;;;;5090888;28;20268;-77
2021/01/25 06:29:05;;;;;;;1.60;1.50;;;5.80;99.90;;;;;;5085857;28;20369;-77
2021/01/25 06:31:38;;;;;;;2.90;1.90;;;5.80;99.90;;;;;;5086606;28;20030;-77
2021/01/25 06:34:06;;;;;;;3.75;1.80;;;5.80;99.90;;;;;;5089699;28;20052;-75
2021/01/25 06:36:34;;;;;;;1.88;1.67;;;5.80;99.90;;;;;;5093118;28;20424;-74
2021/01/25 06:39:04;;;;;;;2.17;1.98;;;5.80;99.90;;;;;;5092974;28;20361;-75
2021/01/25 06:41:41;;;;;;;1.95;1.75;;;5.80;99.90;;;;;;5092414;28;20439;-75
2021/01/25 06:44:08;;;;;;;2.58;2.00;;;5.80;99.90;;;;;;5093024;28;20098;-76
2021/01/25 06:46:36;;;;;;;5.47;2.80;;;5.80;99.90;;;;;;5093650;28;20026;-75
2021/01/25 06:49:09;;;;;;;3.65;2.30;;;5.80;99.90;;;;;;5092172;28;20028;-74
2021/01/25 06:51:43;;;;;;;2.53;2.22;;;5.70;99.90;;;;;;5080104;28;20016;-75
2021/01/25 06:54:11;;;;;;;2.55;2.00;;;5.70;99.90;;;;;;5092216;28;20357;-74
2021/01/25 06:56:54;;;;;;;2.28;2.05;;;5.70;99.90;;;;;;5074301;28;20039;-74
2021/01/25 06:59:25;;;;;;;2.30;2.10;;;5.70;99.90;;;;;;5084054;28;20039;-74
2021/01/25 07:01:52;;;;;;;2.17;1.93;;;5.70;99.90;;;;;;5066401;28;692526;-74
2021/01/25 07:04:22;;;;;;;2.72;2.33;;;5.80;99.90;;;;;;5093576;28;20027;-74
2021/01/25 07:06:53;;;;;;;4.35;1.92;;;5.80;99.90;;;;;;5093320;28;20088;-74
2021/01/25 07:09:31;;;;;;;3.20;2.22;;;6.00;99.90;;;;;;5093840;28;20030;-74
2021/01/25 07:12:03;;;;;;;3.92;1.65;;;6.20;99.90;;;;;;5081313;28;20024;-75
2021/01/25 07:14:31;;;;;;;2.33;2.03;;;6.40;99.90;;;;;;5093718;28;20028;-76
2021/01/25 07:16:58;;;;;;;3.55;2.10;;;6.70;99.90;;;;;;5093312;28;20024;-75
2021/01/25 07:19:25;;;;;;;2.03;1.83;;;7.00;99.90;;;;;;5093967;28;20472;-76
2021/01/25 07:21:52;;;;;;;2.00;1.70;;;7.30;99.90;;;;;;5093511;28;20035;-76
2021/01/25 07:24:25;;;;;;;3.97;1.80;;;7.60;99.90;;;;;;5093580;28;20103;-75
2021/01/25 07:26:52;;;;;;;2.03;1.83;;;7.80;99.90;;;;;;5091755;28;20016;-76
2021/01/25 07:29:19;;;;;;;1.70;1.60;;;8.10;99.90;;;;;;5088280;28;20089;-74
2021/01/25 07:31:45;;;;;;;1.48;1.30;;;8.50;99.90;;;;;;5093311;28;20475;-74
2021/01/25 07:34:12;;;;;;;5.28;1.58;;;8.80;99.90;;;;;;5090645;28;20031;-74
2021/01/25 07:36:38;;;;;;;3.13;1.83;;;8.90;99.90;;;;;;5083530;28;20028;-74
2021/01/25 07:39:06;;;;;;;3.42;2.00;;;9.00;99.90;;;;;;5091636;28;20020;-74
2021/01/25 07:41:32;;;;;;;3.78;2.10;;;8.90;99.90;;;;;;5092539;28;20491;-74
2021/01/25 07:44:00;;;;;;;8.60;2.47;;;8.80;99.90;;;;;;5092776;28;20047;-74
2021/01/25 07:46:26;;;;;;;2.92;1.70;;;8.70;99.90;;;;;;5092011;28;20023;-74
2021/01/25 07:48:53;;;;;;;2.85;1.88;;;8.80;99.90;;;;;;5093440;28;20365;-74
2021/01/25 07:51:22;;;;;;;3.20;1.98;;;8.90;99.90;;;;;;5092904;28;20028;-74
2021/01/25 07:53:48;;;;;;;4.30;2.33;;;8.90;99.90;;;;;;5075139;28;20108;-74
2021/01/25 07:56:14;;;;;;;3.55;2.35;;;8.90;99.90;;;;;;5089516;28;20055;-74
2021/01/25 07:58:40;;;;;;;6.13;1.88;;;8.80;99.90;;;;;;5092081;28;20457;-75
2021/01/25 08:01:26;;;;;;;2.25;1.67;;;8.60;99.90;;;;;;5092281;28;20035;-74
2021/01/25 08:03:58;;;;;;;3.10;1.60;;;8.50;99.90;;;;;;5085650;28;20485;-76
2021/01/25 08:06:25;;;;;;;5.07;1.92;;;8.20;99.90;;;;;;5082781;28;20032;-74
2021/01/25 08:08:51;;;;;;;5.03;2.40;;;8.00;99.90;;;;;;5093260;28;20030;-75
2021/01/25 08:11:19;;;;;;;3.10;1.70;;;8.00;99.90;;;;;;5093237;28;20500;-75
2021/01/25 08:13:57;;;;;;;7.93;1.80;;;7.90;99.90;;;;;;5092898;28;20035;-74
2021/01/25 08:16:27;;;;;;;1.58;1.48;;;7.80;99.90;;;;;;5092610;28;20057;-75
2021/01/25 08:19:25;;;;;;;2.22;1.77;;;7.70;99.90;;;;;;5092822;28;20031;-74
2021/01/25 08:22:03;;;;;;;2.33;2.13;;;7.60;99.90;;;;;;5077079;28;20028;-74
2021/01/25 08:24:32;;;;;;;1.73;1.50;;;7.70;99.90;;;;;;5078546;28;20504;-74
2021/01/25 08:27:08;;;;;;;2.97;1.48;;;7.80;99.90;;;;;;5077777;28;20024;-74
2021/01/25 08:29:35;;;;;;;7.47;1.92;;;7.80;99.90;;;;;;5092180;28;20016;-74
2021/01/25 08:32:33;;;;;;;4.65;1.98;;;7.80;99.90;;;;;;5091819;28;21079;-74
2021/01/25 08:35:03;;;;;;;7.65;2.47;;;7.80;99.90;;;;;;5090663;28;20020;-74
2021/01/25 08:37:32;;;;;;;4.65;1.85;;;7.60;99.90;;;;;;5091304;28;20052;-74
2021/01/25 08:40:09;;;;;;;1.83;1.70;;;7.60;99.90;;;;;;5091613;28;20121;-77
2021/01/25 08:42:35;;;;;;;3.95;2.10;;;7.60;99.90;;;;;;5090761;28;20069;-76
2021/01/25 08:45:09;;;;;;;8.02;1.83;;;7.60;99.90;;;;;;5091546;28;20490;-75
2021/01/25 08:47:35;;;;;;;6.30;2.20;;;7.60;99.90;;;;;;5091913;28;20020;-77
2021/01/25 08:50:02;;;;;;;2.85;1.92;;;7.50;99.90;;;;;;5091966;28;20032;-75
2021/01/25 08:52:39;;;;;;;2.97;1.73;;;7.50;99.90;;;;;;5090982;28;20032;-77
2021/01/25 08:55:09;;;;;;;3.63;1.75;;;7.50;99.90;;;;;;5083963;28;20530;-76
2021/01/25 08:57:42;;;;;;;5.95;1.92;;;7.50;99.90;;;;;;5091437;28;20063;-75
2021/01/25 09:00:16;;;;;;;2.95;1.83;;;7.50;99.90;;;;;;5089224;28;20093;-76
2021/01/25 09:02:42;;;;;;;2.10;1.90;;;7.60;99.90;;;;;;5089335;28;20201;-76
2021/01/25 09:05:09;;;;;;;2.72;2.00;;;7.60;99.90;;;;;;5089462;28;20051;-76
2021/01/25 09:07:34;;;;;;;5.95;1.90;;;7.70;99.90;;;;;;5090859;28;20016;-76
2021/01/25 09:10:00;;;;;;;4.20;1.60;;;7.70;99.90;;;;;;5085547;28;20073;-77
2021/01/25 09:12:26;;;;;;;1.75;1.63;;;7.70;99.90;;;;;;5087601;28;20019;-74
2021/01/25 09:14:52;;;;;;;1.60;1.50;;;7.70;99.90;;;;;;5091393;28;20119;-74
2021/01/25 09:17:18;;;;;;;3.88;1.80;;;7.80;99.90;;;;;;5090239;28;20023;-75
2021/01/25 09:19:43;;;;;;;2.00;1.60;;;7.90;99.90;;;;;;5088190;28;20031;-74
2021/01/25 09:22:11;;;;;;;1.98;1.77;;;7.90;99.90;;;;;;5089606;28;20376;-74
2021/01/25 09:24:39;;;;;;;7.82;1.85;;;7.90;99.90;;;;;;5091068;28;20051;-75
2021/01/25 09:27:05;;;;;;;4.57;2.75;;;8.10;99.90;;;;;;5090081;28;20478;-74
2021/01/25 09:29:30;;;;;;;5.13;3.80;;;8.10;99.90;;;;;;5088906;28;20067;-74
2021/01/25 09:31:56;;;;;;;5.78;2.78;;;8.10;99.90;;;;;;5088803;28;20048;-75
2021/01/25 09:34:24;;;;;;;10.80;2.40;;;8.10;99.90;;;;;;5091949;28;20024;-75
2021/01/25 09:36:50;;;;;;;3.63;2.33;;;8.10;99.90;;;;;;5091916;28;20032;-74
2021/01/25 09:39:16;;;;;;;5.63;3.30;;;8.10;99.90;;;;;;5091484;28;20012;-75
2021/01/25 09:41:44;;;;;;;4.53;2.10;;;8.10;99.90;;;;;;5091586;28;20369;-74
2021/01/25 09:44:10;;;;;;;8.02;2.85;;;8.10;99.90;;;;;;5091376;28;20417;-74
2021/01/25 09:46:36;;;;;;;7.88;5.30;;;8.00;99.90;;;;;;5091150;28;20101;-75
2021/01/25 09:49:02;;;;;;;35.33;19.50;;;8.00;99.90;;;;;;5091302;28;20392;-75
2021/01/25 09:51:27;;;;;;;42.40;21.13;;;8.00;99.90;;;;;;5092731;28;20016;-76
2021/01/25 09:53:53;;;;;;;34.05;24.70;;;8.00;99.90;;;;;;5091091;28;20028;-76
2021/01/25 09:56:19;;;;;;;27.60;22.98;;;8.00;99.90;;;;;;5091202;28;20161;-75
2021/01/25 09:58:44;;;;;;;8.93;7.32;;;8.00;99.90;;;;;;5090629;28;20020;-76
2021/01/25 10:01:10;;;;;;;16.25;10.85;;;8.10;99.90;;;;;;5086657;28;20027;-75
2021/01/25 10:03:36;;;;;;;14.50;7.85;;;8.10;99.90;;;;;;5090760;28;20513;-75
2021/01/25 10:06:02;;;;;;;14.27;11.93;;;8.10;99.90;;;;;;5091094;28;20055;-75
2021/01/25 10:08:27;;;;;;;17.05;11.13;;;8.10;99.90;;;;;;5090834;28;20024;-76
2021/01/25 10:10:53;;;;;;;10.82;6.80;;;8.10;99.90;;;;;;5091395;28;20026;-76
2021/01/25 10:13:18;;;;;;;3.92;2.63;;;8.10;99.90;;;;;;5090989;28;20024;-74
2021/01/25 10:15:44;;;;;;;15.45;3.03;;;8.20;99.90;;;;;;5090010;28;20031;-75
2021/01/25 10:18:10;;;;;;;7.10;2.70;;;8.30;99.90;;;;;;5088560;28;20056;-74
2021/01/25 10:20:36;;;;;;;12.32;2.22;;;8.50;99.90;;;;;;5093491;28;20008;-74
2021/01/25 10:23:04;;;;;;;2.42;1.83;;;8.50;99.90;;;;;;5094867;28;20024;-74
2021/01/25 10:25:29;;;;;;;6.15;2.25;;;8.60;99.90;;;;;;5094362;28;20028;-75
2021/01/25 10:27:56;;;;;;;4.68;2.80;;;8.60;99.90;;;;;;5095132;28;20137;-75
2021/01/25 10:30:22;;;;;;;7.22;2.28;;;8.70;99.90;;;;;;5094517;28;20089;-75
2021/01/25 10:32:47;;;;;;;12.48;2.08;;;8.80;99.90;;;;;;5094237;28;20020;-74
2021/01/25 10:35:14;;;;;;;3.40;2.35;;;8.90;99.90;;;;;;5093553;28;20470;-75
2021/01/25 10:37:41;;;;;;;2.42;2.00;;;8.90;99.90;;;;;;5091706;28;20126;-75
2021/01/25 10:40:07;;;;;;;5.55;2.25;;;9.00;99.90;;;;;;5092628;28;20035;-76
2021/01/25 10:42:33;;;;;;;6.95;2.85;;;8.90;99.90;;;;;;5094145;28;20091;-76
2021/01/25 10:44:59;;;;;;;4.35;1.90;;;9.00;99.90;;;;;;5093466;28;20119;-74
2021/01/25 10:47:25;;;;;;;11.90;3.00;;;9.40;99.90;;;;;;5092879;28;20022;-76
2021/01/25 10:49:51;;;;;;;12.15;2.58;;;9.90;99.90;;;;;;5093545;28;20035;-74
2021/01/25 10:52:17;;;;;;;10.90;3.50;;;10.00;99.90;;;;;;5091267;28;20016;-74
2021/01/25 10:54:43;;;;;;;24.75;3.20;;;10.20;99.90;;;;;;5093579;28;20028;-74
2021/01/25 10:57:09;;;;;;;10.30;2.90;;;10.20;99.90;;;;;;5093377;28;20078;-75
2021/01/25 10:59:35;;;;;;;3.40;1.95;;;10.10;99.90;;;;;;5092935;28;20099;-75
2021/01/25 11:02:05;;;;;;;4.55;2.17;;;9.90;99.90;;;;;;5093405;28;20127;-74
2021/01/25 11:04:31;;;;;;;2.70;2.00;;;9.80;99.90;;;;;;5093460;28;20028;-75
2021/01/25 11:06:56;;;;;;;2.80;2.13;;;9.70;99.90;;;;;;5094105;28;20017;-75
2021/01/25 11:09:22;;;;;;;2.85;1.90;;;9.80;99.90;;;;;;5093935;28;20647;-74
2021/01/25 11:11:50;;;;;;;2.17;1.98;;;9.80;99.90;;;;;;5093535;28;20091;-75
2021/01/25 11:14:16;;;;;;;6.30;1.63;;;9.80;99.90;;;;;;5093695;28;20028;-75
2021/01/25 11:16:43;;;;;;;4.70;3.20;;;9.90;99.90;;;;;;5093181;28;20510;-77
2021/01/25 11:19:10;;;;;;;3.63;2.60;;;9.90;99.90;;;;;;5093769;28;20039;-76
2021/01/25 11:21:35;;;;;;;4.93;2.40;;;9.80;99.90;;;;;;5093853;28;20016;-76
2021/01/25 11:24:01;;;;;;;2.40;1.77;;;9.80;99.90;;;;;;5093170;28;20028;-78
2021/01/25 11:26:28;;;;;;;4.22;2.08;;;9.70;99.90;;;;;;5093586;28;20085;-77
2021/01/25 11:28:54;;;;;;;1.92;1.50;;;9.60;99.90;;;;;;5093820;28;20062;-78
2021/01/25 11:31:21;;;;;;;2.95;1.92;;;9.50;99.90;;;;;;5084146;28;20044;-77
2021/01/25 11:33:46;;;;;;;4.72;3.15;;;9.40;99.90;;;;;;5078792;28;20495;-76
2021/01/25 11:36:12;;;;;;;3.10;2.03;;;9.50;99.90;;;;;;5090407;28;20068;-76
2021/01/25 11:38:38;;;;;;;3.25;2.05;;;9.40;99.90;;;;;;5093676;28;20016;-77
2021/01/25 11:41:04;;;;;;;3.80;2.55;;;9.30;99.90;;;;;;5093308;28;20379;-75
2021/01/25 11:43:30;;;;;;;6.03;2.25;;;9.20;99.90;;;;;;5087149;28;20020;-76
2021/01/25 11:45:56;;;;;;;2.70;1.92;;;9.20;99.90;;;;;;5075799;28;20035;-77
2021/01/25 11:48:21;;;;;;;3.97;2.63;;;9.30;99.90;;;;;;5092861;28;20016;-76
2021/01/25 11:50:49;;;;;;;6.32;2.05;;;9.50;99.90;;;;;;5090751;28;20036;-77
2021/01/25 11:53:15;;;;;;;5.28;3.10;;;9.70;99.90;;;;;;5091552;28;20012;-78
2021/01/25 11:55:41;;;;;;;3.58;1.98;;;9.90;99.90;;;;;;5091080;28;20024;-77
2021/01/25 11:58:10;;;;;;;5.97;3.17;;;10.20;99.90;;;;;;5088728;28;20073;-77
2021/01/25 12:00:36;;;;;;;9.20;2.72;;;10.40;99.90;;;;;;5091563;28;20020;-76
2021/01/25 12:03:03;;;;;;;8.82;6.03;;;10.50;99.90;;;;;;5091121;28;20040;-77
2021/01/25 12:05:29;;;;;;;10.85;5.28;;;10.60;99.90;;;;;;5091007;28;20537;-76
2021/01/25 12:07:54;;;;;;;4.57;3.25;;;10.60;99.90;;;;;;5090668;28;20069;-76
2021/01/25 12:10:20;;;;;;;2.53;1.80;;;10.70;99.90;;;;;;5091780;28;20024;-76
2021/01/25 12:12:46;;;;;;;6.68;4.78;;;10.80;99.90;;;;;;5090819;28;20091;-76
2021/01/25 12:15:12;;;;;;;23.17;12.60;;;10.80;99.90;;;;;;5091742;28;20024;-76
2021/01/25 12:17:39;;;;;;;6.25;3.88;;;10.70;99.90;;;;;;5091795;28;20020;-76
2021/01/25 12:20:05;;;;;;;3.40;2.55;;;10.60;99.90;;;;;;5091820;28;20046;-76
2021/01/25 12:22:31;;;;;;;2.92;2.20;;;10.50;99.90;;;;;;5092232;28;20049;-76
2021/01/25 12:24:57;;;;;;;9.02;3.53;;;10.30;99.90;;;;;;5090541;28;20016;-76
2021/01/25 12:27:23;;;;;;;16.73;3.60;;;10.20;99.90;;;;;;5085882;28;20468;-76
2021/01/25 12:29:48;;;;;;;9.93;7.70;;;10.10;99.90;;;;;;5092331;28;20024;-76
2021/01/25 12:32:14;;;;;;;4.00;3.45;;;10.00;99.90;;;;;;5088725;28;20118;-76
2021/01/25 12:34:42;;;;;;;3.33;2.03;;;10.00;99.90;;;;;;5088985;28;20028;-76
2021/01/25 12:37:07;;;;;;;23.63;6.38;;;10.00;99.90;;;;;;5091319;28;20028;-76
2021/01/25 12:39:33;;;;;;;6.18;2.10;;;10.00;99.90;;;;;;5091140;28;20488;-76
2021/01/25 12:41:59;;;;;;;6.35;4.40;;;10.00;99.90;;;;;;5091729;28;20484;-76
2021/01/25 12:44:25;;;;;;;14.13;9.27;;;10.00;99.90;;;;;;5090884;28;20155;-76
2021/01/25 12:46:50;;;;;;;6.47;3.58;;;10.00;99.90;;;;;;5091643;28;20028;-76
2021/01/25 12:49:18;;;;;;;5.63;3.10;;;9.90;99.90;;;;;;5091716;28;20008;-76
2021/01/25 12:51:44;;;;;;;15.35;9.32;;;9.90;99.90;;;;;;5091483;28;20024;-77
2021/01/25 12:54:10;;;;;;;4.28;3.55;;;9.70;99.90;;;;;;5091653;28;20383;-78
2021/01/25 12:56:35;;;;;;;3.03;2.78;;;9.50;99.90;;;;;;5091573;28;20047;-77